sensor_id;sensor_type;location;lat;lon;timestamp;P1;durP1;ratioP1;P2;durP2;ratioP2
57199;SDS011;43061;43.902;22.266;2022-08-19T00:01:45;10.75;;;3.50;;
57199;SDS011;43061;43.902;22.266;2022-08-19T00:04:12;7.70;;;4.10;;
57199;SDS011;43061;43.902;22.266;2022-08-19T00:06:40;7.57;;;3.78;;
57199;SDS011;43061;43.902;22.266;2022-08-19T00:09:07;6.93;;;3.90;;
57199;SDS011;43061;43.902;22.266;2022-08-19T00:11:34;6.78;;;3.67;;
57199;SDS011;43061;43.902;22.266;2022-08-19T00:14:01;7.22;;;3.70;;
57199;SDS011;43061;43.902;22.266;2022-08-19T00:16:27;7.03;;;3.85;;
57199;SDS011;43061;43.902;22.266;2022-08-19T00:18:54;6.88;;;3.47;;
57199;SDS011;43061;43.902;22.266;2022-08-19T00:21:20;8.85;;;3.90;;
57199;SDS011;43061;43.902;22.266;2022-08-19T00:23:47;6.90;;;3.83;;
57199;SDS011;43061;43.902;22.266;2022-08-19T00:26:13;8.85;;;4.68;;
57199;SDS011;43061;43.902;22.266;2022-08-19T00:28:39;6.78;;;3.92;;
57199;SDS011;43061;43.902;22.266;2022-08-19T00:31:06;7.78;;;3.90;;
57199;SDS011;43061;43.902;22.266;2022-08-19T00:33:33;8.45;;;3.97;;
57199;SDS011;43061;43.902;22.266;2022-08-19T00:36:00;8.23;;;4.22;;
57199;SDS011;43061;43.902;22.266;2022-08-19T00:38:27;9.07;;;4.25;;
57199;SDS011;43061;43.902;22.266;2022-08-19T00:40:53;9.52;;;3.92;;
57199;SDS011;43061;43.902;22.266;2022-08-19T00:43:21;8.13;;;3.88;;
57199;SDS011;43061;43.902;22.266;2022-08-19T00:45:48;7.20;;;3.85;;
57199;SDS011;43061;43.902;22.266;2022-08-19T00:48:15;8.65;;;4.03;;
57199;SDS011;43061;43.902;22.266;2022-08-19T00:50:43;8.98;;;3.75;;
57199;SDS011;43061;43.902;22.266;2022-08-19T00:53:10;7.57;;;3.90;;
57199;SDS011;43061;43.902;22.266;2022-08-19T00:55:36;7.18;;;3.80;;
57199;SDS011;43061;43.902;22.266;2022-08-19T00:58:07;7.75;;;3.90;;
57199;SDS011;43061;43.902;22.266;2022-08-19T01:00:34;7.35;;;4.00;;
57199;SDS011;43061;43.902;22.266;2022-08-19T01:03:02;11.35;;;3.80;;
57199;SDS011;43061;43.902;22.266;2022-08-19T01:05:29;9.32;;;4.22;;
57199;SDS011;43061;43.902;22.266;2022-08-19T01:07:56;8.27;;;4.32;;
57199;SDS011;43061;43.902;22.266;2022-08-19T01:10:27;10.40;;;4.40;;
57199;SDS011;43061;43.902;22.266;2022-08-19T01:12:54;7.38;;;4.53;;
57199;SDS011;43061;43.902;22.266;2022-08-19T01:15:24;10.20;;;4.40;;
57199;SDS011;43061;43.902;22.266;2022-08-19T01:17:51;8.02;;;3.72;;
57199;SDS011;43061;43.902;22.266;2022-08-19T01:20:19;8.80;;;4.20;;
57199;SDS011;43061;43.902;22.266;2022-08-19T01:22:47;9.18;;;3.95;;
57199;SDS011;43061;43.902;22.266;2022-08-19T01:25:15;7.18;;;3.80;;
57199;SDS011;43061;43.902;22.266;2022-08-19T01:27:43;7.28;;;4.10;;
57199;SDS011;43061;43.902;22.266;2022-08-19T01:30:11;8.20;;;4.25;;
57199;SDS011;43061;43.902;22.266;2022-08-19T01:32:37;11.38;;;4.10;;
57199;SDS011;43061;43.902;22.266;2022-08-19T01:35:03;9.05;;;4.18;;
57199;SDS011;43061;43.902;22.266;2022-08-19T01:37:30;13.27;;;4.60;;
57199;SDS011;43061;43.902;22.266;2022-08-19T01:40:07;11.05;;;4.20;;
57199;SDS011;43061;43.902;22.266;2022-08-19T01:42:33;7.72;;;4.10;;
57199;SDS011;43061;43.902;22.266;2022-08-19T01:45:00;7.65;;;4.30;;
57199;SDS011;43061;43.902;22.266;2022-08-19T01:47:26;7.88;;;3.90;;
57199;SDS011;43061;43.902;22.266;2022-08-19T01:49:52;7.10;;;3.88;;
57199;SDS011;43061;43.902;22.266;2022-08-19T01:52:19;6.38;;;4.00;;
57199;SDS011;43061;43.902;22.266;2022-08-19T01:54:45;6.38;;;4.10;;
57199;SDS011;43061;43.902;22.266;2022-08-19T01:57:12;9.50;;;3.95;;
57199;SDS011;43061;43.902;22.266;2022-08-19T01:59:39;7.90;;;3.97;;
57199;SDS011;43061;43.902;22.266;2022-08-19T02:02:06;8.70;;;4.30;;
57199;SDS011;43061;43.902;22.266;2022-08-19T02:04:33;6.85;;;4.10;;
57199;SDS011;43061;43.902;22.266;2022-08-19T02:06:59;7.97;;;4.45;;
57199;SDS011;43061;43.902;22.266;2022-08-19T02:09:25;7.93;;;4.05;;
57199;SDS011;43061;43.902;22.266;2022-08-19T02:11:51;7.93;;;4.35;;
57199;SDS011;43061;43.902;22.266;2022-08-19T02:14:18;9.55;;;3.95;;
57199;SDS011;43061;43.902;22.266;2022-08-19T02:16:44;7.60;;;4.20;;
57199;SDS011;43061;43.902;22.266;2022-08-19T02:19:10;8.50;;;3.88;;
57199;SDS011;43061;43.902;22.266;2022-08-19T02:21:36;7.82;;;4.00;;
57199;SDS011;43061;43.902;22.266;2022-08-19T02:24:02;7.97;;;4.50;;
57199;SDS011;43061;43.902;22.266;2022-08-19T02:26:29;8.07;;;4.50;;
57199;SDS011;43061;43.902;22.266;2022-08-19T02:28:55;11.23;;;4.88;;
57199;SDS011;43061;43.902;22.266;2022-08-19T02:31:22;12.25;;;4.90;;
57199;SDS011;43061;43.902;22.266;2022-08-19T02:33:48;8.40;;;4.80;;
57199;SDS011;43061;43.902;22.266;2022-08-19T02:36:15;10.05;;;5.05;;
57199;SDS011;43061;43.902;22.266;2022-08-19T02:38:42;9.90;;;4.55;;
57199;SDS011;43061;43.902;22.266;2022-08-19T02:41:19;9.45;;;4.68;;
57199;SDS011;43061;43.902;22.266;2022-08-19T02:43:46;8.90;;;4.65;;
57199;SDS011;43061;43.902;22.266;2022-08-19T02:46:20;8.23;;;4.60;;
57199;SDS011;43061;43.902;22.266;2022-08-19T02:48:48;9.32;;;4.68;;
57199;SDS011;43061;43.902;22.266;2022-08-19T02:51:18;10.23;;;4.60;;
57199;SDS011;43061;43.902;22.266;2022-08-19T02:53:44;8.85;;;4.60;;
57199;SDS011;43061;43.902;22.266;2022-08-19T02:56:10;11.07;;;4.28;;
57199;SDS011;43061;43.902;22.266;2022-08-19T02:58:37;8.93;;;4.20;;
57199;SDS011;43061;43.902;22.266;2022-08-19T03:01:03;8.18;;;4.50;;
57199;SDS011;43061;43.902;22.266;2022-08-19T03:03:29;7.82;;;4.53;;
57199;SDS011;43061;43.902;22.266;2022-08-19T03:06:05;12.20;;;4.63;;
57199;SDS011;43061;43.902;22.266;2022-08-19T03:08:31;10.52;;;4.60;;
57199;SDS011;43061;43.902;22.266;2022-08-19T03:10:57;9.27;;;4.57;;
57199;SDS011;43061;43.902;22.266;2022-08-19T03:13:24;8.32;;;4.40;;
57199;SDS011;43061;43.902;22.266;2022-08-19T03:15:50;9.10;;;4.85;;
57199;SDS011;43061;43.902;22.266;2022-08-19T03:18:16;6.97;;;4.68;;
57199;SDS011;43061;43.902;22.266;2022-08-19T03:20:43;8.50;;;4.28;;
57199;SDS011;43061;43.902;22.266;2022-08-19T03:23:10;8.93;;;4.60;;
57199;SDS011;43061;43.902;22.266;2022-08-19T03:25:41;9.98;;;4.65;;
57199;SDS011;43061;43.902;22.266;2022-08-19T03:28:08;9.20;;;4.55;;
57199;SDS011;43061;43.902;22.266;2022-08-19T03:30:35;9.65;;;4.60;;
57199;SDS011;43061;43.902;22.266;2022-08-19T03:33:01;9.18;;;4.80;;
57199;SDS011;43061;43.902;22.266;2022-08-19T03:35:27;7.63;;;4.57;;
57199;SDS011;43061;43.902;22.266;2022-08-19T03:37:53;9.13;;;4.78;;
57199;SDS011;43061;43.902;22.266;2022-08-19T03:40:21;7.47;;;4.47;;
57199;SDS011;43061;43.902;22.266;2022-08-19T03:42:47;10.85;;;4.75;;
57199;SDS011;43061;43.902;22.266;2022-08-19T03:45:15;8.90;;;4.82;;
57199;SDS011;43061;43.902;22.266;2022-08-19T03:47:41;8.93;;;4.97;;
57199;SDS011;43061;43.902;22.266;2022-08-19T03:50:07;8.48;;;4.80;;
57199;SDS011;43061;43.902;22.266;2022-08-19T03:52:34;8.68;;;4.90;;
57199;SDS011;43061;43.902;22.266;2022-08-19T03:55:01;9.70;;;4.90;;
57199;SDS011;43061;43.902;22.266;2022-08-19T03:57:27;11.60;;;4.78;;
57199;SDS011;43061;43.902;22.266;2022-08-19T03:59:53;10.50;;;4.68;;
57199;SDS011;43061;43.902;22.266;2022-08-19T04:02:19;9.32;;;4.85;;
57199;SDS011;43061;43.902;22.266;2022-08-19T04:04:46;12.30;;;5.70;;
57199;SDS011;43061;43.902;22.266;2022-08-19T04:07:13;12.80;;;5.38;;
57199;SDS011;43061;43.902;22.266;2022-08-19T04:09:43;13.38;;;5.53;;
57199;SDS011;43061;43.902;22.266;2022-08-19T04:12:09;11.90;;;5.65;;
57199;SDS011;43061;43.902;22.266;2022-08-19T04:14:35;13.68;;;5.93;;
57199;SDS011;43061;43.902;22.266;2022-08-19T04:17:01;12.70;;;5.75;;
57199;SDS011;43061;43.902;22.266;2022-08-19T04:19:29;10.93;;;5.50;;
57199;SDS011;43061;43.902;22.266;2022-08-19T04:21:56;10.35;;;5.13;;
57199;SDS011;43061;43.902;22.266;2022-08-19T04:24:23;10.98;;;5.18;;
57199;SDS011;43061;43.902;22.266;2022-08-19T04:26:50;12.48;;;5.70;;
57199;SDS011;43061;43.902;22.266;2022-08-19T04:29:18;13.68;;;5.60;;
57199;SDS011;43061;43.902;22.266;2022-08-19T04:31:47;12.93;;;5.20;;
57199;SDS011;43061;43.902;22.266;2022-08-19T04:34:14;12.45;;;5.13;;
57199;SDS011;43061;43.902;22.266;2022-08-19T04:36:42;11.65;;;5.10;;
57199;SDS011;43061;43.902;22.266;2022-08-19T04:39:14;11.10;;;5.25;;
57199;SDS011;43061;43.902;22.266;2022-08-19T04:41:40;10.93;;;4.97;;
57199;SDS011;43061;43.902;22.266;2022-08-19T04:44:25;10.45;;;5.00;;
57199;SDS011;43061;43.902;22.266;2022-08-19T04:46:55;10.27;;;5.40;;
57199;SDS011;43061;43.902;22.266;2022-08-19T04:49:21;8.57;;;5.15;;
57199;SDS011;43061;43.902;22.266;2022-08-19T04:51:48;11.55;;;6.13;;
57199;SDS011;43061;43.902;22.266;2022-08-19T04:54:16;10.23;;;5.57;;
57199;SDS011;43061;43.902;22.266;2022-08-19T04:56:42;14.13;;;5.82;;
57199;SDS011;43061;43.902;22.266;2022-08-19T04:59:09;9.40;;;5.60;;
57199;SDS011;43061;43.902;22.266;2022-08-19T05:01:35;35.08;;;6.55;;
57199;SDS011;43061;43.902;22.266;2022-08-19T05:04:03;12.80;;;5.53;;
57199;SDS011;43061;43.902;22.266;2022-08-19T05:06:30;13.63;;;5.38;;
57199;SDS011;43061;43.902;22.266;2022-08-19T05:08:57;10.00;;;5.25;;
57199;SDS011;43061;43.902;22.266;2022-08-19T05:11:28;12.38;;;5.80;;
57199;SDS011;43061;43.902;22.266;2022-08-19T05:13:55;15.88;;;5.60;;
57199;SDS011;43061;43.902;22.266;2022-08-19T05:16:22;13.40;;;6.50;;
57199;SDS011;43061;43.902;22.266;2022-08-19T05:18:48;12.07;;;6.50;;
57199;SDS011;43061;43.902;22.266;2022-08-19T05:21:34;11.45;;;5.70;;
57199;SDS011;43061;43.902;22.266;2022-08-19T05:24:19;14.20;;;5.53;;
57199;SDS011;43061;43.902;22.266;2022-08-19T05:26:46;10.88;;;5.07;;
57199;SDS011;43061;43.902;22.266;2022-08-19T05:29:17;11.75;;;5.68;;
57199;SDS011;43061;43.902;22.266;2022-08-19T05:31:43;9.95;;;5.55;;
57199;SDS011;43061;43.902;22.266;2022-08-19T05:34:10;12.65;;;5.35;;
57199;SDS011;43061;43.902;22.266;2022-08-19T05:36:37;11.38;;;5.88;;
57199;SDS011;43061;43.902;22.266;2022-08-19T05:39:05;11.60;;;5.63;;
57199;SDS011;43061;43.902;22.266;2022-08-19T05:41:31;12.95;;;5.50;;
57199;SDS011;43061;43.902;22.266;2022-08-19T05:43:57;9.98;;;5.78;;
57199;SDS011;43061;43.902;22.266;2022-08-19T05:46:23;9.88;;;5.40;;
57199;SDS011;43061;43.902;22.266;2022-08-19T05:48:49;11.65;;;5.38;;
57199;SDS011;43061;43.902;22.266;2022-08-19T05:51:16;8.60;;;5.35;;
57199;SDS011;43061;43.902;22.266;2022-08-19T05:53:42;11.77;;;5.45;;
57199;SDS011;43061;43.902;22.266;2022-08-19T05:56:14;8.98;;;5.20;;
57199;SDS011;43061;43.902;22.266;2022-08-19T05:58:41;8.18;;;5.03;;
57199;SDS011;43061;43.902;22.266;2022-08-19T06:01:15;10.82;;;5.28;;
57199;SDS011;43061;43.902;22.266;2022-08-19T06:03:41;10.00;;;5.72;;
57199;SDS011;43061;43.902;22.266;2022-08-19T06:06:08;8.77;;;4.88;;
57199;SDS011;43061;43.902;22.266;2022-08-19T06:08:36;11.82;;;5.20;;
57199;SDS011;43061;43.902;22.266;2022-08-19T06:11:16;10.45;;;5.00;;
57199;SDS011;43061;43.902;22.266;2022-08-19T06:13:43;8.73;;;4.63;;
57199;SDS011;43061;43.902;22.266;2022-08-19T06:16:12;7.65;;;4.75;;
57199;SDS011;43061;43.902;22.266;2022-08-19T06:18:38;6.93;;;4.55;;
57199;SDS011;43061;43.902;22.266;2022-08-19T06:21:04;11.85;;;5.13;;
57199;SDS011;43061;43.902;22.266;2022-08-19T06:23:30;8.93;;;4.60;;
57199;SDS011;43061;43.902;22.266;2022-08-19T06:25:56;8.32;;;5.30;;
57199;SDS011;43061;43.902;22.266;2022-08-19T06:28:22;9.55;;;4.72;;
57199;SDS011;43061;43.902;22.266;2022-08-19T06:30:49;9.55;;;5.00;;
57199;SDS011;43061;43.902;22.266;2022-08-19T06:33:16;8.77;;;4.80;;
57199;SDS011;43061;43.902;22.266;2022-08-19T06:35:42;11.73;;;4.88;;
57199;SDS011;43061;43.902;22.266;2022-08-19T06:38:08;10.57;;;4.75;;
57199;SDS011;43061;43.902;22.266;2022-08-19T06:40:34;10.65;;;4.70;;
57199;SDS011;43061;43.902;22.266;2022-08-19T06:43:02;12.45;;;4.47;;
57199;SDS011;43061;43.902;22.266;2022-08-19T06:45:28;7.72;;;4.63;;
57199;SDS011;43061;43.902;22.266;2022-08-19T06:47:55;9.80;;;4.40;;
57199;SDS011;43061;43.902;22.266;2022-08-19T06:50:22;8.10;;;5.03;;
57199;SDS011;43061;43.902;22.266;2022-08-19T06:52:48;10.10;;;4.80;;
57199;SDS011;43061;43.902;22.266;2022-08-19T06:55:14;10.02;;;4.95;;
57199;SDS011;43061;43.902;22.266;2022-08-19T06:57:40;9.82;;;5.30;;
57199;SDS011;43061;43.902;22.266;2022-08-19T07:00:07;9.38;;;5.15;;
57199;SDS011;43061;43.902;22.266;2022-08-19T07:02:39;9.57;;;5.30;;
57199;SDS011;43061;43.902;22.266;2022-08-19T07:05:06;12.23;;;5.78;;
57199;SDS011;43061;43.902;22.266;2022-08-19T07:07:32;10.10;;;6.20;;
57199;SDS011;43061;43.902;22.266;2022-08-19T07:09:59;13.23;;;5.47;;
57199;SDS011;43061;43.902;22.266;2022-08-19T07:12:26;12.15;;;5.65;;
57199;SDS011;43061;43.902;22.266;2022-08-19T07:14:52;10.57;;;5.90;;
57199;SDS011;43061;43.902;22.266;2022-08-19T07:17:18;15.23;;;6.28;;
57199;SDS011;43061;43.902;22.266;2022-08-19T07:19:45;11.45;;;6.38;;
57199;SDS011;43061;43.902;22.266;2022-08-19T07:22:11;13.23;;;6.63;;
57199;SDS011;43061;43.902;22.266;2022-08-19T07:24:37;10.20;;;6.15;;
57199;SDS011;43061;43.902;22.266;2022-08-19T07:27:04;11.27;;;6.18;;
57199;SDS011;43061;43.902;22.266;2022-08-19T07:29:32;11.68;;;6.07;;
57199;SDS011;43061;43.902;22.266;2022-08-19T07:31:58;14.30;;;6.40;;
57199;SDS011;43061;43.902;22.266;2022-08-19T07:34:25;13.45;;;6.65;;
57199;SDS011;43061;43.902;22.266;2022-08-19T07:36:53;14.02;;;6.95;;
57199;SDS011;43061;43.902;22.266;2022-08-19T07:39:21;15.10;;;6.78;;
57199;SDS011;43061;43.902;22.266;2022-08-19T07:41:48;16.38;;;7.00;;
57199;SDS011;43061;43.902;22.266;2022-08-19T07:44:15;12.35;;;7.28;;
57199;SDS011;43061;43.902;22.266;2022-08-19T07:46:43;13.95;;;6.90;;
57199;SDS011;43061;43.902;22.266;2022-08-19T07:49:10;13.70;;;7.05;;
57199;SDS011;43061;43.902;22.266;2022-08-19T07:51:48;13.93;;;7.05;;
57199;SDS011;43061;43.902;22.266;2022-08-19T07:54:15;14.00;;;7.18;;
57199;SDS011;43061;43.902;22.266;2022-08-19T07:56:41;14.18;;;7.25;;
57199;SDS011;43061;43.902;22.266;2022-08-19T07:59:07;13.88;;;7.05;;
57199;SDS011;43061;43.902;22.266;2022-08-19T08:01:34;12.63;;;7.50;;
57199;SDS011;43061;43.902;22.266;2022-08-19T08:04:00;11.38;;;7.00;;
57199;SDS011;43061;43.902;22.266;2022-08-19T08:06:45;14.13;;;7.32;;
57199;SDS011;43061;43.902;22.266;2022-08-19T08:09:31;10.52;;;7.20;;
57199;SDS011;43061;43.902;22.266;2022-08-19T08:14:33;12.80;;;6.90;;
57199;SDS011;43061;43.902;22.266;2022-08-19T08:17:01;14.07;;;7.70;;
57199;SDS011;43061;43.902;22.266;2022-08-19T08:19:27;13.63;;;7.38;;
57199;SDS011;43061;43.902;22.266;2022-08-19T08:21:55;13.10;;;7.15;;
57199;SDS011;43061;43.902;22.266;2022-08-19T08:24:21;12.95;;;6.82;;
57199;SDS011;43061;43.902;22.266;2022-08-19T08:26:47;9.27;;;6.63;;
57199;SDS011;43061;43.902;22.266;2022-08-19T08:29:14;12.27;;;6.70;;
57199;SDS011;43061;43.902;22.266;2022-08-19T08:31:40;13.40;;;7.10;;
57199;SDS011;43061;43.902;22.266;2022-08-19T08:34:07;11.65;;;6.70;;
57199;SDS011;43061;43.902;22.266;2022-08-19T08:36:37;13.77;;;6.85;;
57199;SDS011;43061;43.902;22.266;2022-08-19T08:39:06;9.68;;;6.53;;
57199;SDS011;43061;43.902;22.266;2022-08-19T08:44:20;39.92;;;28.27;;
57199;SDS011;43061;43.902;22.266;2022-08-19T08:46:48;23.70;;;14.80;;
57199;SDS011;43061;43.902;22.266;2022-08-19T08:52:04;15.50;;;6.35;;
57199;SDS011;43061;43.902;22.266;2022-08-19T08:54:39;12.18;;;5.75;;
57199;SDS011;43061;43.902;22.266;2022-08-19T08:57:53;11.60;;;5.85;;
57199;SDS011;43061;43.902;22.266;2022-08-19T08:59:53;11.63;;;6.80;;
57199;SDS011;43061;43.902;22.266;2022-08-19T09:02:20;13.85;;;7.40;;
57199;SDS011;43061;43.902;22.266;2022-08-19T09:04:46;12.65;;;7.63;;
57199;SDS011;43061;43.902;22.266;2022-08-19T09:09:56;12.65;;;6.13;;
57199;SDS011;43061;43.902;22.266;2022-08-19T09:15:00;10.30;;;5.90;;
57199;SDS011;43061;43.902;22.266;2022-08-19T09:17:28;9.90;;;5.63;;
57199;SDS011;43061;43.902;22.266;2022-08-19T09:22:27;9.98;;;5.30;;
57199;SDS011;43061;43.902;22.266;2022-08-19T09:24:53;9.45;;;5.32;;
57199;SDS011;43061;43.902;22.266;2022-08-19T09:27:20;15.90;;;5.22;;
57199;SDS011;43061;43.902;22.266;2022-08-19T09:29:48;8.93;;;4.70;;
57199;SDS011;43061;43.902;22.266;2022-08-19T09:32:15;8.38;;;4.13;;
57199;SDS011;43061;43.902;22.266;2022-08-19T09:34:42;9.20;;;4.75;;
57199;SDS011;43061;43.902;22.266;2022-08-19T09:37:08;8.88;;;4.68;;
57199;SDS011;43061;43.902;22.266;2022-08-19T09:39:34;8.50;;;4.60;;
57199;SDS011;43061;43.902;22.266;2022-08-19T09:42:00;11.05;;;4.32;;
57199;SDS011;43061;43.902;22.266;2022-08-19T09:44:28;8.80;;;4.75;;
57199;SDS011;43061;43.902;22.266;2022-08-19T09:46:54;10.82;;;4.57;;
57199;SDS011;43061;43.902;22.266;2022-08-19T09:49:21;12.65;;;4.60;;
57199;SDS011;43061;43.902;22.266;2022-08-19T09:51:51;7.63;;;4.18;;
57199;SDS011;43061;43.902;22.266;2022-08-19T09:54:21;9.10;;;4.03;;
57199;SDS011;43061;43.902;22.266;2022-08-19T09:56:47;8.80;;;4.70;;
57199;SDS011;43061;43.902;22.266;2022-08-19T09:59:13;10.23;;;4.60;;
57199;SDS011;43061;43.902;22.266;2022-08-19T10:01:39;9.35;;;4.72;;
57199;SDS011;43061;43.902;22.266;2022-08-19T10:04:06;10.23;;;4.57;;
57199;SDS011;43061;43.902;22.266;2022-08-19T10:06:36;7.85;;;4.38;;
57199;SDS011;43061;43.902;22.266;2022-08-19T10:09:02;8.88;;;4.30;;
57199;SDS011;43061;43.902;22.266;2022-08-19T10:11:31;10.20;;;4.72;;
57199;SDS011;43061;43.902;22.266;2022-08-19T10:13:57;11.07;;;4.70;;
57199;SDS011;43061;43.902;22.266;2022-08-19T10:16:24;9.32;;;4.70;;
57199;SDS011;43061;43.902;22.266;2022-08-19T10:18:51;9.13;;;4.68;;
57199;SDS011;43061;43.902;22.266;2022-08-19T10:21:20;6.95;;;4.70;;
57199;SDS011;43061;43.902;22.266;2022-08-19T10:23:48;8.45;;;4.18;;
57199;SDS011;43061;43.902;22.266;2022-08-19T10:26:17;8.23;;;4.35;;
57199;SDS011;43061;43.902;22.266;2022-08-19T10:28:43;7.95;;;4.70;;
57199;SDS011;43061;43.902;22.266;2022-08-19T10:31:14;9.00;;;4.78;;
57199;SDS011;43061;43.902;22.266;2022-08-19T10:33:40;8.85;;;4.45;;
57199;SDS011;43061;43.902;22.266;2022-08-19T10:36:08;8.25;;;4.22;;
57199;SDS011;43061;43.902;22.266;2022-08-19T10:38:35;7.55;;;4.60;;
57199;SDS011;43061;43.902;22.266;2022-08-19T10:41:08;10.95;;;4.32;;
57199;SDS011;43061;43.902;22.266;2022-08-19T10:43:35;8.45;;;4.57;;
57199;SDS011;43061;43.902;22.266;2022-08-19T10:46:03;8.60;;;4.40;;
57199;SDS011;43061;43.902;22.266;2022-08-19T10:48:30;11.65;;;4.70;;
57199;SDS011;43061;43.902;22.266;2022-08-19T10:50:57;10.95;;;4.53;;
57199;SDS011;43061;43.902;22.266;2022-08-19T10:53:42;8.30;;;4.40;;
57199;SDS011;43061;43.902;22.266;2022-08-19T10:56:08;8.45;;;4.60;;
57199;SDS011;43061;43.902;22.266;2022-08-19T10:58:53;9.25;;;4.47;;
57199;SDS011;43061;43.902;22.266;2022-08-19T11:01:19;10.18;;;4.68;;
57199;SDS011;43061;43.902;22.266;2022-08-19T11:03:45;9.05;;;4.40;;
57199;SDS011;43061;43.902;22.266;2022-08-19T11:06:11;9.65;;;4.90;;
57199;SDS011;43061;43.902;22.266;2022-08-19T11:08:37;10.80;;;5.10;;
57199;SDS011;43061;43.902;22.266;2022-08-19T11:11:04;9.40;;;4.70;;
57199;SDS011;43061;43.902;22.266;2022-08-19T11:13:31;10.85;;;4.72;;
57199;SDS011;43061;43.902;22.266;2022-08-19T11:16:06;8.68;;;4.45;;
57199;SDS011;43061;43.902;22.266;2022-08-19T11:18:34;10.00;;;5.95;;
57199;SDS011;43061;43.902;22.266;2022-08-19T11:23:42;9.82;;;4.18;;
57199;SDS011;43061;43.902;22.266;2022-08-19T11:26:09;8.35;;;5.22;;
57199;SDS011;43061;43.902;22.266;2022-08-19T11:28:35;10.25;;;4.20;;
57199;SDS011;43061;43.902;22.266;2022-08-19T11:31:01;10.48;;;4.50;;
57199;SDS011;43061;43.902;22.266;2022-08-19T11:33:30;9.65;;;4.30;;
57199;SDS011;43061;43.902;22.266;2022-08-19T11:35:58;7.55;;;4.00;;
57199;SDS011;43061;43.902;22.266;2022-08-19T11:38:26;7.78;;;3.95;;
57199;SDS011;43061;43.902;22.266;2022-08-19T11:40:59;11.52;;;4.22;;
57199;SDS011;43061;43.902;22.266;2022-08-19T11:43:25;11.98;;;4.22;;
57199;SDS011;43061;43.902;22.266;2022-08-19T11:45:55;8.65;;;4.07;;
57199;SDS011;43061;43.902;22.266;2022-08-19T11:48:21;8.20;;;4.10;;
57199;SDS011;43061;43.902;22.266;2022-08-19T11:50:48;7.45;;;4.25;;
57199;SDS011;43061;43.902;22.266;2022-08-19T11:53:14;9.80;;;3.97;;
57199;SDS011;43061;43.902;22.266;2022-08-19T11:55:41;8.40;;;4.28;;
57199;SDS011;43061;43.902;22.266;2022-08-19T11:58:08;8.00;;;3.97;;
57199;SDS011;43061;43.902;22.266;2022-08-19T12:00:34;8.13;;;4.22;;
57199;SDS011;43061;43.902;22.266;2022-08-19T12:03:01;12.07;;;4.35;;
57199;SDS011;43061;43.902;22.266;2022-08-19T12:05:28;8.18;;;4.18;;
57199;SDS011;43061;43.902;22.266;2022-08-19T12:07:54;10.65;;;4.00;;
57199;SDS011;43061;43.902;22.266;2022-08-19T12:10:21;7.35;;;4.10;;
57199;SDS011;43061;43.902;22.266;2022-08-19T12:12:47;8.45;;;4.22;;
57199;SDS011;43061;43.902;22.266;2022-08-19T12:15:13;7.97;;;4.35;;
57199;SDS011;43061;43.902;22.266;2022-08-19T12:17:42;10.98;;;4.80;;
57199;SDS011;43061;43.902;22.266;2022-08-19T12:20:09;11.82;;;4.22;;
57199;SDS011;43061;43.902;22.266;2022-08-19T12:22:36;11.23;;;4.35;;
57199;SDS011;43061;43.902;22.266;2022-08-19T12:25:03;9.75;;;3.80;;
57199;SDS011;43061;43.902;22.266;2022-08-19T12:27:30;9.05;;;4.38;;
57199;SDS011;43061;43.902;22.266;2022-08-19T12:29:57;9.05;;;4.38;;
57199;SDS011;43061;43.902;22.266;2022-08-19T12:32:26;10.68;;;4.47;;
57199;SDS011;43061;43.902;22.266;2022-08-19T12:34:52;9.90;;;4.53;;
57199;SDS011;43061;43.902;22.266;2022-08-19T12:37:19;8.68;;;4.57;;
57199;SDS011;43061;43.902;22.266;2022-08-19T12:39:45;9.45;;;4.13;;
57199;SDS011;43061;43.902;22.266;2022-08-19T12:42:12;6.93;;;4.00;;
57199;SDS011;43061;43.902;22.266;2022-08-19T12:44:39;8.75;;;3.80;;
57199;SDS011;43061;43.902;22.266;2022-08-19T12:47:06;8.63;;;4.40;;
57199;SDS011;43061;43.902;22.266;2022-08-19T12:49:33;9.82;;;4.10;;
57199;SDS011;43061;43.902;22.266;2022-08-19T12:52:00;7.53;;;3.70;;
57199;SDS011;43061;43.902;22.266;2022-08-19T12:54:26;9.80;;;3.75;;
57199;SDS011;43061;43.902;22.266;2022-08-19T12:56:53;9.82;;;3.90;;
57199;SDS011;43061;43.902;22.266;2022-08-19T12:59:19;8.55;;;3.83;;
57199;SDS011;43061;43.902;22.266;2022-08-19T13:01:45;10.82;;;3.80;;
57199;SDS011;43061;43.902;22.266;2022-08-19T13:04:11;11.02;;;3.50;;
57199;SDS011;43061;43.902;22.266;2022-08-19T13:06:37;7.10;;;3.55;;
57199;SDS011;43061;43.902;22.266;2022-08-19T13:09:04;7.47;;;3.60;;
57199;SDS011;43061;43.902;22.266;2022-08-19T13:11:30;9.30;;;3.75;;
57199;SDS011;43061;43.902;22.266;2022-08-19T13:14:00;8.73;;;3.75;;
57199;SDS011;43061;43.902;22.266;2022-08-19T13:16:26;8.93;;;3.90;;
57199;SDS011;43061;43.902;22.266;2022-08-19T13:18:53;9.63;;;4.22;;
57199;SDS011;43061;43.902;22.266;2022-08-19T13:21:20;7.32;;;3.55;;
57199;SDS011;43061;43.902;22.266;2022-08-19T13:23:47;10.38;;;3.70;;
57199;SDS011;43061;43.902;22.266;2022-08-19T13:26:14;8.88;;;3.90;;
57199;SDS011;43061;43.902;22.266;2022-08-19T13:28:40;10.95;;;4.05;;
57199;SDS011;43061;43.902;22.266;2022-08-19T13:31:26;9.38;;;3.63;;
57199;SDS011;43061;43.902;22.266;2022-08-19T13:34:10;10.45;;;3.72;;
57199;SDS011;43061;43.902;22.266;2022-08-19T13:36:37;8.82;;;3.83;;
57199;SDS011;43061;43.902;22.266;2022-08-19T13:39:04;6.80;;;3.38;;
57199;SDS011;43061;43.902;22.266;2022-08-19T13:41:30;7.88;;;3.45;;
57199;SDS011;43061;43.902;22.266;2022-08-19T13:43:56;8.43;;;3.40;;
57199;SDS011;43061;43.902;22.266;2022-08-19T13:46:22;8.30;;;3.30;;
57199;SDS011;43061;43.902;22.266;2022-08-19T13:48:49;8.73;;;3.40;;
57199;SDS011;43061;43.902;22.266;2022-08-19T13:51:16;7.15;;;3.10;;
57199;SDS011;43061;43.902;22.266;2022-08-19T13:53:42;8.57;;;3.28;;
57199;SDS011;43061;43.902;22.266;2022-08-19T13:56:10;9.23;;;3.65;;
57199;SDS011;43061;43.902;22.266;2022-08-19T13:58:36;8.70;;;3.40;;
57199;SDS011;43061;43.902;22.266;2022-08-19T14:01:03;9.25;;;3.50;;
57199;SDS011;43061;43.902;22.266;2022-08-19T14:03:30;9.02;;;3.53;;
57199;SDS011;43061;43.902;22.266;2022-08-19T14:05:56;11.45;;;3.97;;
57199;SDS011;43061;43.902;22.266;2022-08-19T14:08:22;8.50;;;3.35;;
57199;SDS011;43061;43.902;22.266;2022-08-19T14:10:48;6.63;;;3.25;;
57199;SDS011;43061;43.902;22.266;2022-08-19T14:13:18;8.15;;;3.30;;
57199;SDS011;43061;43.902;22.266;2022-08-19T14:15:45;7.73;;;3.40;;
57199;SDS011;43061;43.902;22.266;2022-08-19T14:18:12;7.32;;;3.40;;
57199;SDS011;43061;43.902;22.266;2022-08-19T14:20:38;8.98;;;3.75;;
57199;SDS011;43061;43.902;22.266;2022-08-19T14:23:05;7.80;;;3.47;;
57199;SDS011;43061;43.902;22.266;2022-08-19T14:25:31;10.93;;;3.50;;
57199;SDS011;43061;43.902;22.266;2022-08-19T14:27:58;11.45;;;3.80;;
57199;SDS011;43061;43.902;22.266;2022-08-19T14:30:26;10.10;;;3.80;;
57199;SDS011;43061;43.902;22.266;2022-08-19T14:32:53;12.27;;;3.88;;
57199;SDS011;43061;43.902;22.266;2022-08-19T14:35:20;7.35;;;3.50;;
57199;SDS011;43061;43.902;22.266;2022-08-19T14:37:49;8.07;;;3.35;;
57199;SDS011;43061;43.902;22.266;2022-08-19T14:40:16;9.80;;;3.50;;
57199;SDS011;43061;43.902;22.266;2022-08-19T14:42:45;8.90;;;3.47;;
57199;SDS011;43061;43.902;22.266;2022-08-19T14:45:13;9.10;;;3.28;;
57199;SDS011;43061;43.902;22.266;2022-08-19T14:47:39;9.63;;;3.47;;
57199;SDS011;43061;43.902;22.266;2022-08-19T14:50:09;7.85;;;3.40;;